sensor_id;sensor_type;location;lat;lon;timestamp;pressure;altitude;pressure_sealevel;temperature;humidity
49311;BME280;35177;45.900;5.946;2023-01-10T00:01:17;97947.44;;;2.62;100.00
49311;BME280;35177;45.900;5.946;2023-01-10T00:03:43;97945.19;;;2.59;100.00
49311;BME280;35177;45.900;5.946;2023-01-10T00:06:08;97954.31;;;2.43;100.00
49311;BME280;35177;45.900;5.946;2023-01-10T00:08:34;97956.72;;;2.39;100.00
49311;BME280;35177;45.900;5.946;2023-01-10T00:10:59;97974.22;;;1.99;100.00
49311;BME280;35177;45.900;5.946;2023-01-10T00:13:44;97971.06;;;1.73;100.00
49311;BME280;35177;45.900;5.946;2023-01-10T00:16:10;97980.03;;;1.68;100.00
49311;BME280;35177;45.900;5.946;2023-01-10T00:18:35;97985.31;;;1.41;100.00
49311;BME280;35177;45.900;5.946;2023-01-10T00:21:01;97994.28;;;1.70;100.00
49311;BME280;35177;45.900;5.946;2023-01-10T00:23:26;98002.31;;;1.43;100.00
49311;BME280;35177;45.900;5.946;2023-01-10T00:25:52;98003.25;;;1.83;100.00
49311;BME280;35177;45.900;5.946;2023-01-10T00:28:18;97990.81;;;2.09;100.00
49311;BME280;35177;45.900;5.946;2023-01-10T00:30:46;98014.19;;;2.00;100.00
49311;BME280;35177;45.900;5.946;2023-01-10T00:33:13;98020.66;;;2.11;100.00
49311;BME280;35177;45.900;5.946;2023-01-10T00:35:45;98026.53;;;2.19;100.00
49311;BME280;35177;45.900;5.946;2023-01-10T00:38:11;98019.59;;;2.12;100.00
49311;BME280;35177;45.900;5.946;2023-01-10T00:40:37;98026.03;;;2.22;100.00
49311;BME280;35177;45.900;5.946;2023-01-10T00:43:02;98022.41;;;2.00;100.00
49311;BME280;35177;45.900;5.946;2023-01-10T00:45:47;98028.19;;;1.69;100.00
49311;BME280;35177;45.900;5.946;2023-01-10T00:48:13;98040.63;;;1.60;100.00
49311;BME280;35177;45.900;5.946;2023-01-10T00:50:39;98054.19;;;1.55;100.00
49311;BME280;35177;45.900;5.946;2023-01-10T00:53:04;98059.81;;;1.48;100.00
49311;BME280;35177;45.900;5.946;2023-01-10T00:55:30;98061.97;;;1.46;100.00
49311;BME280;35177;45.900;5.946;2023-01-10T00:57:56;98070.25;;;1.34;100.00
49311;BME280;35177;45.900;5.946;2023-01-10T01:00:22;98077.47;;;1.40;100.00
49311;BME280;35177;45.900;5.946;2023-01-10T01:02:47;98080.97;;;1.24;100.00
49311;BME280;35177;45.900;5.946;2023-01-10T01:05:16;98077.03;;;1.32;100.00
49311;BME280;35177;45.900;5.946;2023-01-10T01:07:41;98095.25;;;1.14;100.00
49311;BME280;35177;45.900;5.946;2023-01-10T01:10:07;98086.06;;;1.20;100.00
49311;BME280;35177;45.900;5.946;2023-01-10T01:12:56;98096.31;;;1.13;100.00
49311;BME280;35177;45.900;5.946;2023-01-10T01:15:22;98113.34;;;1.03;100.00
49311;BME280;35177;45.900;5.946;2023-01-10T01:17:48;98107.50;;;1.11;100.00
49311;BME280;35177;45.900;5.946;2023-01-10T01:20:14;98102.09;;;1.28;100.00
49311;BME280;35177;45.900;5.946;2023-01-10T01:22:40;98100.59;;;1.50;100.00
49311;BME280;35177;45.900;5.946;2023-01-10T01:25:05;98101.25;;;1.69;100.00
49311;BME280;35177;45.900;5.946;2023-01-10T01:27:31;98109.19;;;1.99;100.00
49311;BME280;35177;45.900;5.946;2023-01-10T01:29:57;98115.16;;;2.13;100.00
49311;BME280;35177;45.900;5.946;2023-01-10T01:32:23;98126.28;;;2.23;100.00
49311;BME280;35177;45.900;5.946;2023-01-10T01:34:48;98114.72;;;1.87;100.00
49311;BME280;35177;45.900;5.946;2023-01-10T01:37:14;98118.25;;;1.88;100.00
49311;BME280;35177;45.900;5.946;2023-01-10T01:39:40;98129.28;;;1.76;100.00
49311;BME280;35177;45.900;5.946;2023-01-10T01:42:23;98143.72;;;1.59;100.00
49311;BME280;35177;45.900;5.946;2023-01-10T01:47:40;98162.16;;;1.64;100.00
49311;BME280;35177;45.900;5.946;2023-01-10T01:50:18;98170.00;;;1.72;100.00
49311;BME280;35177;45.900;5.946;2023-01-10T01:52:47;98159.88;;;1.73;100.00
49311;BME280;35177;45.900;5.946;2023-01-10T01:55:15;98161.84;;;2.06;100.00
49311;BME280;35177;45.900;5.946;2023-01-10T01:57:41;98153.66;;;2.23;100.00
49311;BME280;35177;45.900;5.946;2023-01-10T02:00:10;98172.75;;;2.18;100.00
49311;BME280;35177;45.900;5.946;2023-01-10T02:02:41;98170.75;;;2.14;100.00
49311;BME280;35177;45.900;5.946;2023-01-10T02:05:10;98176.16;;;1.97;100.00
49311;BME280;35177;45.900;5.946;2023-01-10T02:07:39;98178.19;;;2.01;100.00
49311;BME280;35177;45.900;5.946;2023-01-10T02:10:11;98177.16;;;1.62;100.00
49311;BME280;35177;45.900;5.946;2023-01-10T02:12:40;98178.06;;;1.26;100.00
49311;BME280;35177;45.900;5.946;2023-01-10T02:15:08;98174.25;;;1.27;100.00
49311;BME280;35177;45.900;5.946;2023-01-10T02:17:34;98185.09;;;1.22;100.00
49311;BME280;35177;45.900;5.946;2023-01-10T02:20:05;98179.16;;;1.14;100.00
49311;BME280;35177;45.900;5.946;2023-01-10T02:28:14;98188.31;;;0.95;100.00
49311;BME280;35177;45.900;5.946;2023-01-10T02:42:08;98196.50;;;1.72;100.00
49311;BME280;35177;45.900;5.946;2023-01-10T02:44:47;98206.25;;;1.80;100.00
49311;BME280;35177;45.900;5.946;2023-01-10T02:47:15;98205.75;;;1.83;100.00
49311;BME280;35177;45.900;5.946;2023-01-10T02:49:45;98208.34;;;1.89;100.00
49311;BME280;35177;45.900;5.946;2023-01-10T02:52:16;98199.84;;;1.74;100.00
49311;BME280;35177;45.900;5.946;2023-01-10T02:54:43;98210.34;;;1.65;100.00
49311;BME280;35177;45.900;5.946;2023-01-10T02:57:14;98220.59;;;1.46;100.00
49311;BME280;35177;45.900;5.946;2023-01-10T03:05:36;98225.34;;;1.39;100.00
49311;BME280;35177;45.900;5.946;2023-01-10T03:08:30;98227.63;;;1.30;100.00
49311;BME280;35177;45.900;5.946;2023-01-10T03:11:01;98240.94;;;1.38;100.00
49311;BME280;35177;45.900;5.946;2023-01-10T03:16:04;98243.44;;;1.40;100.00
49311;BME280;35177;45.900;5.946;2023-01-10T03:18:35;98248.41;;;1.55;100.00
49311;BME280;35177;45.900;5.946;2023-01-10T03:21:04;98253.06;;;1.54;100.00
49311;BME280;35177;45.900;5.946;2023-01-10T03:23:33;98256.28;;;1.39;100.00
49311;BME280;35177;45.900;5.946;2023-01-10T03:26:00;98260.91;;;1.39;100.00
49311;BME280;35177;45.900;5.946;2023-01-10T03:28:31;98256.50;;;1.50;100.00
49311;BME280;35177;45.900;5.946;2023-01-10T03:31:02;98261.97;;;1.50;100.00
49311;BME280;35177;45.900;5.946;2023-01-10T03:33:31;98266.47;;;1.68;100.00
49311;BME280;35177;45.900;5.946;2023-01-10T03:36:06;98276.66;;;1.84;100.00
49311;BME280;35177;45.900;5.946;2023-01-10T03:38:40;98277.16;;;1.81;100.00
49311;BME280;35177;45.900;5.946;2023-01-10T03:41:18;98283.78;;;1.85;100.00
49311;BME280;35177;45.900;5.946;2023-01-10T03:44:17;98291.44;;;1.83;100.00
49311;BME280;35177;45.900;5.946;2023-01-10T03:49:49;98286.75;;;1.96;100.00
49311;BME280;35177;45.900;5.946;2023-01-10T03:52:18;98282.94;;;1.97;100.00
49311;BME280;35177;45.900;5.946;2023-01-10T03:54:45;98288.66;;;1.95;100.00
49311;BME280;35177;45.900;5.946;2023-01-10T03:57:20;98306.84;;;2.01;100.00
49311;BME280;35177;45.900;5.946;2023-01-10T03:59:46;98288.88;;;2.05;100.00
49311;BME280;35177;45.900;5.946;2023-01-10T04:02:13;98298.19;;;1.81;100.00
49311;BME280;35177;45.900;5.946;2023-01-10T04:04:38;98296.31;;;1.69;100.00
49311;BME280;35177;45.900;5.946;2023-01-10T04:07:04;98300.97;;;1.69;100.00
49311;BME280;35177;45.900;5.946;2023-01-10T04:09:29;98329.88;;;1.53;100.00
49311;BME280;35177;45.900;5.946;2023-01-10T04:11:55;98334.28;;;1.42;100.00
49311;BME280;35177;45.900;5.946;2023-01-10T04:14:21;98343.94;;;1.56;100.00
49311;BME280;35177;45.900;5.946;2023-01-10T04:16:46;98335.00;;;1.61;100.00
49311;BME280;35177;45.900;5.946;2023-01-10T04:19:12;98335.47;;;1.46;100.00
49311;BME280;35177;45.900;5.946;2023-01-10T04:21:37;98332.88;;;1.51;100.00
49311;BME280;35177;45.900;5.946;2023-01-10T04:24:03;98336.53;;;1.45;100.00
49311;BME280;35177;45.900;5.946;2023-01-10T04:26:28;98351.16;;;1.39;100.00
49311;BME280;35177;45.900;5.946;2023-01-10T04:28:54;98345.94;;;1.49;100.00
49311;BME280;35177;45.900;5.946;2023-01-10T04:31:19;98347.03;;;1.60;100.00
49311;BME280;35177;45.900;5.946;2023-01-10T04:33:46;98337.38;;;1.57;100.00
49311;BME280;35177;45.900;5.946;2023-01-10T04:36:12;98334.53;;;1.28;100.00
49311;BME280;35177;45.900;5.946;2023-01-10T04:38:37;98339.03;;;1.35;100.00
49311;BME280;35177;45.900;5.946;2023-01-10T04:41:03;98339.63;;;1.37;100.00
49311;BME280;35177;45.900;5.946;2023-01-10T04:43:28;98344.88;;;1.38;100.00
49311;BME280;35177;45.900;5.946;2023-01-10T04:45:54;98348.56;;;1.44;100.00
49311;BME280;35177;45.900;5.946;2023-01-10T04:48:19;98354.59;;;1.46;100.00
49311;BME280;35177;45.900;5.946;2023-01-10T04:50:49;98357.94;;;1.48;100.00
49311;BME280;35177;45.900;5.946;2023-01-10T04:53:15;98360.09;;;1.46;100.00
49311;BME280;35177;45.900;5.946;2023-01-10T04:55:41;98358.78;;;1.49;100.00
49311;BME280;35177;45.900;5.946;2023-01-10T04:58:06;98362.34;;;1.49;100.00
49311;BME280;35177;45.900;5.946;2023-01-10T05:00:32;98374.13;;;1.50;100.00
49311;BME280;35177;45.900;5.946;2023-01-10T05:02:57;98373.97;;;1.33;100.00
49311;BME280;35177;45.900;5.946;2023-01-10T05:05:23;98379.97;;;1.41;100.00
49311;BME280;35177;45.900;5.946;2023-01-10T05:07:49;98384.13;;;1.44;100.00
49311;BME280;35177;45.900;5.946;2023-01-10T05:10:14;98390.66;;;1.43;100.00
49311;BME280;35177;45.900;5.946;2023-01-10T05:12:40;98392.44;;;1.49;100.00
49311;BME280;35177;45.900;5.946;2023-01-10T05:15:06;98390.31;;;1.51;100.00
49311;BME280;35177;45.900;5.946;2023-01-10T05:17:32;98395.06;;;1.44;100.00
49311;BME280;35177;45.900;5.946;2023-01-10T05:19:57;98387.34;;;1.53;100.00
49311;BME280;35177;45.900;5.946;2023-01-10T05:22:23;98394.84;;;1.57;100.00
49311;BME280;35177;45.900;5.946;2023-01-10T05:24:48;98387.09;;;1.54;100.00
49311;BME280;35177;45.900;5.946;2023-01-10T05:27:14;98395.63;;;1.46;100.00
49311;BME280;35177;45.900;5.946;2023-01-10T05:29:40;98386.97;;;1.49;100.00
49311;BME280;35177;45.900;5.946;2023-01-10T05:32:06;98392.31;;;1.44;100.00
49311;BME280;35177;45.900;5.946;2023-01-10T05:34:31;98392.91;;;1.34;100.00
49311;BME280;35177;45.900;5.946;2023-01-10T05:36:57;98406.31;;;1.12;100.00
49311;BME280;35177;45.900;5.946;2023-01-10T05:39:22;98402.75;;;1.23;100.00
49311;BME280;35177;45.900;5.946;2023-01-10T05:41:48;98409.06;;;1.36;100.00
49311;BME280;35177;45.900;5.946;2023-01-10T05:44:13;98410.50;;;1.38;100.00
49311;BME280;35177;45.900;5.946;2023-01-10T05:46:38;98423.81;;;1.35;100.00
49311;BME280;35177;45.900;5.946;2023-01-10T05:49:04;98420.13;;;1.41;100.00
49311;BME280;35177;45.900;5.946;2023-01-10T05:51:30;98416.22;;;1.49;100.00
49311;BME280;35177;45.900;5.946;2023-01-10T05:53:55;98424.56;;;1.54;100.00
49311;BME280;35177;45.900;5.946;2023-01-10T05:56:22;98426.56;;;1.58;100.00
49311;BME280;35177;45.900;5.946;2023-01-10T05:58:48;98425.41;;;1.66;100.00
49311;BME280;35177;45.900;5.946;2023-01-10T06:01:13;98438.03;;;1.67;100.00
49311;BME280;35177;45.900;5.946;2023-01-10T06:03:39;98438.59;;;1.69;100.00
49311;BME280;35177;45.900;5.946;2023-01-10T06:06:05;98443.38;;;1.74;100.00
49311;BME280;35177;45.900;5.946;2023-01-10T06:08:30;98440.88;;;1.72;100.00
49311;BME280;35177;45.900;5.946;2023-01-10T06:10:56;98443.72;;;1.66;100.00
49311;BME280;35177;45.900;5.946;2023-01-10T06:13:22;98442.19;;;1.70;100.00
49311;BME280;35177;45.900;5.946;2023-01-10T06:15:48;98452.63;;;1.73;100.00
49311;BME280;35177;45.900;5.946;2023-01-10T06:18:13;98451.56;;;1.62;100.00
49311;BME280;35177;45.900;5.946;2023-01-10T06:20:40;98465.97;;;1.57;100.00
49311;BME280;35177;45.900;5.946;2023-01-10T06:23:05;98461.84;;;1.36;100.00
49311;BME280;35177;45.900;5.946;2023-01-10T06:25:32;98460.78;;;1.37;100.00
49311;BME280;35177;45.900;5.946;2023-01-10T06:28:00;98463.75;;;1.36;100.00
49311;BME280;35177;45.900;5.946;2023-01-10T06:30:25;98477.88;;;1.33;100.00
49311;BME280;35177;45.900;5.946;2023-01-10T06:32:51;98485.84;;;1.22;100.00
49311;BME280;35177;45.900;5.946;2023-01-10T06:35:16;98485.72;;;1.17;100.00
49311;BME280;35177;45.900;5.946;2023-01-10T06:37:45;98492.47;;;1.15;100.00
49311;BME280;35177;45.900;5.946;2023-01-10T06:40:11;98490.66;;;1.08;100.00
49311;BME280;35177;45.900;5.946;2023-01-10T06:42:36;98497.38;;;0.94;100.00
49311;BME280;35177;45.900;5.946;2023-01-10T06:45:03;98500.09;;;0.94;100.00
49311;BME280;35177;45.900;5.946;2023-01-10T06:47:29;98498.19;;;0.94;100.00
49311;BME280;35177;45.900;5.946;2023-01-10T06:49:54;98496.91;;;0.97;100.00
49311;BME280;35177;45.900;5.946;2023-01-10T06:52:20;98489.72;;;0.84;100.00
49311;BME280;35177;45.900;5.946;2023-01-10T06:54:45;98491.31;;;0.73;100.00
49311;BME280;35177;45.900;5.946;2023-01-10T06:57:11;98487.78;;;0.73;100.00
49311;BME280;35177;45.900;5.946;2023-01-10T06:59:36;98483.91;;;0.62;100.00
49311;BME280;35177;45.900;5.946;2023-01-10T07:02:02;98486.13;;;0.35;100.00
49311;BME280;35177;45.900;5.946;2023-01-10T07:04:27;98480.84;;;0.33;100.00
49311;BME280;35177;45.900;5.946;2023-01-10T07:06:53;98488.47;;;0.31;100.00
49311;BME280;35177;45.900;5.946;2023-01-10T07:09:18;98489.38;;;0.25;100.00
49311;BME280;35177;45.900;5.946;2023-01-10T07:11:44;98489.91;;;0.34;100.00
49311;BME280;35177;45.900;5.946;2023-01-10T07:14:09;98488.22;;;0.32;100.00
49311;BME280;35177;45.900;5.946;2023-01-10T07:16:35;98493.59;;;0.21;100.00
49311;BME280;35177;45.900;5.946;2023-01-10T07:19:00;98500.41;;;0.11;100.00
49311;BME280;35177;45.900;5.946;2023-01-10T07:21:26;98501.72;;;0.27;100.00
49311;BME280;35177;45.900;5.946;2023-01-10T07:23:52;98511.34;;;0.30;100.00
49311;BME280;35177;45.900;5.946;2023-01-10T07:26:17;98513.72;;;0.26;100.00
49311;BME280;35177;45.900;5.946;2023-01-10T07:28:48;98520.69;;;0.22;100.00
49311;BME280;35177;45.900;5.946;2023-01-10T07:31:20;98520.59;;;0.29;100.00
49311;BME280;35177;45.900;5.946;2023-01-10T07:33:49;98522.91;;;0.32;100.00
49311;BME280;35177;45.900;5.946;2023-01-10T07:36:14;98531.75;;;0.27;100.00
49311;BME280;35177;45.900;5.946;2023-01-10T07:38:40;98539.34;;;0.44;100.00
49311;BME280;35177;45.900;5.946;2023-01-10T07:41:06;98544.81;;;0.44;100.00
49311;BME280;35177;45.900;5.946;2023-01-10T07:43:33;98547.75;;;0.24;100.00
49311;BME280;35177;45.900;5.946;2023-01-10T07:46:00;98559.81;;;0.16;100.00
49311;BME280;35177;45.900;5.946;2023-01-10T07:48:26;98553.06;;;0.19;100.00
49311;BME280;35177;45.900;5.946;2023-01-10T07:50:59;98565.72;;;0.31;100.00
49311;BME280;35177;45.900;5.946;2023-01-10T07:53:26;98557.28;;;0.77;100.00
49311;BME280;35177;45.900;5.946;2023-01-10T07:55:53;98562.31;;;1.10;100.00
49311;BME280;35177;45.900;5.946;2023-01-10T07:58:19;98556.00;;;1.28;100.00
49311;BME280;35177;45.900;5.946;2023-01-10T08:00:44;98550.84;;;1.51;100.00
49311;BME280;35177;45.900;5.946;2023-01-10T08:03:11;98563.00;;;1.24;100.00
49311;BME280;35177;45.900;5.946;2023-01-10T08:05:37;98560.06;;;1.07;100.00
49311;BME280;35177;45.900;5.946;2023-01-10T08:08:04;98573.63;;;0.40;100.00
49311;BME280;35177;45.900;5.946;2023-01-10T08:10:30;98584.00;;;0.31;100.00
49311;BME280;35177;45.900;5.946;2023-01-10T08:12:55;98587.53;;;1.12;100.00
49311;BME280;35177;45.900;5.946;2023-01-10T08:15:21;98580.94;;;1.51;100.00
49311;BME280;35177;45.900;5.946;2023-01-10T08:17:46;98564.28;;;2.06;100.00
49311;BME280;35177;45.900;5.946;2023-01-10T08:20:12;98566.25;;;2.41;100.00
49311;BME280;35177;45.900;5.946;2023-01-10T08:22:38;98562.50;;;2.83;100.00
49311;BME280;35177;45.900;5.946;2023-01-10T08:25:03;98547.28;;;3.16;100.00
49311;BME280;35177;45.900;5.946;2023-01-10T08:27:29;98539.06;;;3.91;100.00
49311;BME280;35177;45.900;5.946;2023-01-10T08:29:54;98535.44;;;4.59;100.00
49311;BME280;35177;45.900;5.946;2023-01-10T08:32:20;98532.34;;;5.17;100.00
49311;BME280;35177;45.900;5.946;2023-01-10T08:34:46;98531.94;;;5.85;100.00
49311;BME280;35177;45.900;5.946;2023-01-10T08:37:12;98523.56;;;6.34;100.00
49311;BME280;35177;45.900;5.946;2023-01-10T08:39:38;98521.63;;;6.78;100.00
49311;BME280;35177;45.900;5.946;2023-01-10T08:42:04;98531.59;;;5.76;100.00
49311;BME280;35177;45.900;5.946;2023-01-10T08:44:29;98531.69;;;4.65;100.00
49311;BME280;35177;45.900;5.946;2023-01-10T08:46:55;98538.09;;;5.37;100.00
49311;BME280;35177;45.900;5.946;2023-01-10T08:49:21;98527.56;;;6.16;100.00
49311;BME280;35177;45.900;5.946;2023-01-10T08:51:46;98534.00;;;6.27;100.00
49311;BME280;35177;45.900;5.946;2023-01-10T08:54:12;98537.47;;;6.12;100.00
49311;BME280;35177;45.900;5.946;2023-01-10T08:56:38;98533.72;;;6.66;100.00
49311;BME280;35177;45.900;5.946;2023-01-10T08:59:05;98539.50;;;7.23;100.00
49311;BME280;35177;45.900;5.946;2023-01-10T09:01:30;98534.06;;;7.44;100.00
49311;BME280;35177;45.900;5.946;2023-01-10T09:03:56;98536.75;;;7.33;100.00
49311;BME280;35177;45.900;5.946;2023-01-10T09:06:21;98542.31;;;7.38;100.00
49311;BME280;35177;45.900;5.946;2023-01-10T09:08:50;98546.50;;;7.56;100.00
49311;BME280;35177;45.900;5.946;2023-01-10T09:11:15;98539.13;;;8.24;100.00
49311;BME280;35177;45.900;5.946;2023-01-10T09:13:41;98539.50;;;9.29;100.00
49311;BME280;35177;45.900;5.946;2023-01-10T09:16:07;98534.19;;;9.88;100.00
49311;BME280;35177;45.900;5.946;2023-01-10T09:18:33;98539.72;;;9.83;100.00
49311;BME280;35177;45.900;5.946;2023-01-10T09:20:58;98550.47;;;9.50;100.00
49311;BME280;35177;45.900;5.946;2023-01-10T09:23:24;98551.50;;;10.09;100.00
49311;BME280;35177;45.900;5.946;2023-01-10T09:25:52;98562.81;;;9.18;100.00
49311;BME280;35177;45.900;5.946;2023-01-10T09:28:18;98566.13;;;10.15;100.00
49311;BME280;35177;45.900;5.946;2023-01-10T09:30:44;98556.00;;;10.99;100.00
49311;BME280;35177;45.900;5.946;2023-01-10T09:33:11;98568.53;;;11.20;100.00
49311;BME280;35177;45.900;5.946;2023-01-10T09:35:38;98571.94;;;11.61;100.00
49311;BME280;35177;45.900;5.946;2023-01-10T09:38:05;98567.03;;;11.28;100.00
49311;BME280;35177;45.900;5.946;2023-01-10T09:51:51;98576.44;;;12.52;94.71
49311;BME280;35177;45.900;5.946;2023-01-10T09:54:32;98585.13;;;12.31;92.50
49311;BME280;35177;45.900;5.946;2023-01-10T09:57:00;98592.88;;;10.01;100.00
49311;BME280;35177;45.900;5.946;2023-01-10T09:59:34;98584.66;;;11.18;100.00
49311;BME280;35177;45.900;5.946;2023-01-10T10:05:05;98589.25;;;11.52;100.00
49311;BME280;35177;45.900;5.946;2023-01-10T10:07:32;98591.41;;;11.80;100.00
49311;BME280;35177;45.900;5.946;2023-01-10T10:09:57;98586.50;;;11.04;100.00
49311;BME280;35177;45.900;5.946;2023-01-10T10:12:42;98587.66;;;10.39;100.00
49311;BME280;35177;45.900;5.946;2023-01-10T10:15:42;98590.84;;;9.67;100.00
49311;BME280;35177;45.900;5.946;2023-01-10T10:18:30;98586.09;;;9.12;100.00
49311;BME280;35177;45.900;5.946;2023-01-10T10:21:10;98587.25;;;8.70;100.00
49311;BME280;35177;45.900;5.946;2023-01-10T10:27:04;98588.59;;;9.08;100.00
49311;BME280;35177;45.900;5.946;2023-01-10T10:37:27;98593.88;;;8.43;100.00
49311;BME280;35177;45.900;5.946;2023-01-10T10:42:46;98587.78;;;8.97;100.00
49311;BME280;35177;45.900;5.946;2023-01-10T10:45:37;98580.53;;;9.17;100.00
49311;BME280;35177;45.900;5.946;2023-01-10T10:48:15;98579.59;;;9.42;100.00
49311;BME280;35177;45.900;5.946;2023-01-10T10:51:06;98578.88;;;9.11;100.00
49311;BME280;35177;45.900;5.946;2023-01-10T10:53:34;98574.25;;;8.75;100.00
49311;BME280;35177;45.900;5.946;2023-01-10T10:56:02;98563.72;;;8.82;100.00
49311;BME280;35177;45.900;5.946;2023-01-10T10:58:29;98562.34;;;8.75;100.00
49311;BME280;35177;45.900;5.946;2023-01-10T11:00:57;98552.94;;;8.71;100.00
49311;BME280;35177;45.900;5.946;2023-01-10T11:03:39;98549.91;;;8.41;100.00
49311;BME280;35177;45.900;5.946;2023-01-10T11:06:07;98541.88;;;8.76;100.00
49311;BME280;35177;45.900;5.946;2023-01-10T11:08:38;98535.19;;;8.92;100.00
49311;BME280;35177;45.900;5.946;2023-01-10T11:11:22;98531.13;;;8.17;100.00
49311;BME280;35177;45.900;5.946;2023-01-10T11:14:06;98533.78;;;7.50;100.00
49311;BME280;35177;45.900;5.946;2023-01-10T11:16:35;98526.41;;;8.13;100.00
49311;BME280;35177;45.900;5.946;2023-01-10T11:19:22;98518.13;;;8.33;100.00
49311;BME280;35177;45.900;5.946;2023-01-10T11:21:59;98515.28;;;8.80;100.00
49311;BME280;35177;45.900;5.946;2023-01-10T11:24:48;98505.31;;;8.74;100.00
49311;BME280;35177;45.900;5.946;2023-01-10T11:27:49;98499.31;;;8.51;100.00
49311;BME280;35177;45.900;5.946;2023-01-10T11:30:21;98495.66;;;8.76;100.00
49311;BME280;35177;45.900;5.946;2023-01-10T11:32:56;98486.00;;;8.58;100.00
49311;BME280;35177;45.900;5.946;2023-01-10T11:35:29;98479.13;;;8.30;100.00
49311;BME280;35177;45.900;5.946;2023-01-10T11:38:16;98475.81;;;8.23;100.00
49311;BME280;35177;45.900;5.946;2023-01-10T11:41:00;98473.59;;;8.09;100.00
49311;BME280;35177;45.900;5.946;2023-01-10T11:43:34;98467.25;;;8.19;100.00
49311;BME280;35177;45.900;5.946;2023-01-10T11:48:38;98462.28;;;7.85;100.00
49311;BME280;35177;45.900;5.946;2023-01-10T11:51:26;98453.13;;;7.38;100.00
49311;BME280;35177;45.900;5.946;2023-01-10T11:54:09;98451.78;;;7.61;100.00
49311;BME280;35177;45.900;5.946;2023-01-10T11:56:37;98436.84;;;7.98;100.00
49311;BME280;35177;45.900;5.946;2023-01-10T11:59:11;98425.78;;;7.98;100.00
49311;BME280;35177;45.900;5.946;2023-01-10T12:04:42;98425.25;;;7.65;100.00
49311;BME280;35177;45.900;5.946;2023-01-10T12:07:11;98430.78;;;7.65;100.00
49311;BME280;35177;45.900;5.946;2023-01-10T12:09:42;98431.34;;;7.62;100.00
49311;BME280;35177;45.900;5.946;2023-01-10T12:12:24;98419.97;;;8.00;100.00
49311;BME280;35177;45.900;5.946;2023-01-10T12:14:51;98418.03;;;7.90;100.00
49311;BME280;35177;45.900;5.946;2023-01-10T12:17:29;98403.66;;;8.03;100.00
49311;BME280;35177;45.900;5.946;2023-01-10T12:19:57;98411.97;;;7.98;100.00
49311;BME280;35177;45.900;5.946;2023-01-10T12:22:32;98401.72;;;8.09;100.00
49311;BME280;35177;45.900;5.946;2023-01-10T12:25:04;98400.91;;;8.03;100.00
49311;BME280;35177;45.900;5.946;2023-01-10T12:27:33;98396.50;;;7.92;100.00
49311;BME280;35177;45.900;5.946;2023-01-10T12:30:06;98391.50;;;7.99;100.00
49311;BME280;35177;45.900;5.946;2023-01-10T12:32:56;98387.38;;;7.86;100.00
49311;BME280;35177;45.900;5.946;2023-01-10T12:41:32;98379.94;;;7.82;100.00
49311;BME280;35177;45.900;5.946;2023-01-10T12:44:32;98369.69;;;7.82;100.00
49311;BME280;35177;45.900;5.946;2023-01-10T12:50:29;98349.84;;;7.39;100.00
49311;BME280;35177;45.900;5.946;2023-01-10T12:53:06;98348.47;;;7.42;100.00
49311;BME280;35177;45.900;5.946;2023-01-10T12:55:41;98339.06;;;7.58;100.00
49311;BME280;35177;45.900;5.946;2023-01-10T12:58:41;98339.56;;;7.91;100.00
49311;BME280;35177;45.900;5.946;2023-01-10T13:01:13;98326.38;;;7.31;100.00
49311;BME280;35177;45.900;5.946;2023-01-10T13:03:39;98326.38;;;7.36;100.00
49311;BME280;35177;45.900;5.946;2023-01-10T13:06:06;98325.81;;;7.50;100.00
49311;BME280;35177;45.900;5.946;2023-01-10T13:08:36;98328.03;;;7.63;100.00
49311;BME280;35177;45.900;5.946;2023-01-10T13:11:03;98329.13;;;7.57;100.00
49311;BME280;35177;45.900;5.946;2023-01-10T13:13:36;98322.50;;;7.63;100.00
49311;BME280;35177;45.900;5.946;2023-01-10T13:16:26;98326.38;;;7.36;100.00
49311;BME280;35177;45.900;5.946;2023-01-10T13:21:38;98329.13;;;7.52;100.00
49311;BME280;35177;45.900;5.946;2023-01-10T13:24:18;98323.63;;;7.36;100.00
49311;BME280;35177;45.900;5.946;2023-01-10T13:29:11;98320.56;;;7.43;100.00
49311;BME280;35177;45.900;5.946;2023-01-10T13:31:40;98332.44;;;7.49;100.00
49311;BME280;35177;45.900;5.946;2023-01-10T13:34:11;98333.25;;;7.29;100.00
49311;BME280;35177;45.900;5.946;2023-01-10T13:36:40;98341.81;;;7.17;100.00
49311;BME280;35177;45.900;5.946;2023-01-10T13:39:20;98341.25;;;7.25;100.00
49311;BME280;35177;45.900;5.946;2023-01-10T13:52:52;98300.13;;;6.98;100.00
49311;BME280;35177;45.900;5.946;2023-01-10T14:09:01;98326.56;;;6.83;100.00
49311;BME280;35177;45.900;5.946;2023-01-10T14:11:32;98315.53;;;6.83;100.00
49311;BME280;35177;45.900;5.946;2023-01-10T14:14:01;98313.63;;;6.89;100.00
49311;BME280;35177;45.900;5.946;2023-01-10T14:16:35;98307.03;;;7.00;100.00
49311;BME280;35177;45.900;5.946;2023-01-10T14:19:04;98307.03;;;7.05;100.00
49311;BME280;35177;45.900;5.946;2023-01-10T14:21:38;98305.09;;;7.06;100.00
49311;BME280;35177;45.900;5.946;2023-01-10T14:24:19;98306.47;;;7.14;100.00
49311;BME280;35177;45.900;5.946;2023-01-10T14:26:47;98310.88;;;6.84;100.00
49311;BME280;35177;45.900;5.946;2023-01-10T14:29:15;98308.66;;;6.81;100.00
49311;BME280;35177;45.900;5.946;2023-01-10T14:31:44;98320.81;;;6.90;100.00
49311;BME280;35177;45.900;5.946;2023-01-10T14:34:19;98328.81;;;6.91;100.00
49311;BME280;35177;45.900;5.946;2023-01-10T14:39:21;98330.47;;;6.98;100.00
49311;BME280;35177;45.900;5.946;2023-01-10T14:41:52;98329.91;;;6.90;100.00
49311;BME280;35177;45.900;5.946;2023-01-10T14:46:58;98338.47;;;6.84;100.00
49311;BME280;35177;45.900;5.946;2023-01-10T14:49:34;98348.34;;;6.69;100.00
49311;BME280;35177;45.900;5.946;2023-01-10T14:52:15;98345.03;;;6.67;100.00
49311;BME280;35177;45.900;5.946;2023-01-10T14:54:44;98340.09;;;6.74;100.00
49311;BME280;35177;45.900;5.946;2023-01-10T14:57:22;98342.53;;;6.61;100.00
49311;BME280;35177;45.900;5.946;2023-01-10T14:59:49;98341.44;;;6.62;100.00
49311;BME280;35177;45.900;5.946;2023-01-10T15:02:19;98339.78;;;6.66;100.00